Time;durP1;ratioP1;P1;durP2;ratioP2;P2;SDS_P1;SDS_P2;PMS_P1;PMS_P2;Temp;Humidity;BMP_temperature;BMP_pressure;BME280_temperature;BME280_humidity;BME280_pressure;Samples;Min_cycle;Max_cycle;Signal;HPM_P1;HPM_P2
2021/01/24 00:01:20;;;;;;;26.82;12.00;;;;;;;17.99;54.68;155853.14;1738951;81;21208;-60
2021/01/24 00:03:52;;;;;;;30.20;13.35;;;;;;;17.98;54.89;155850.50;1806639;78;21199;-58
2021/01/24 00:06:24;;;;;;;29.42;13.70;;;;;;;17.86;54.69;155818.83;1795283;79;21361;-58
2021/01/24 00:08:57;;;;;;;28.50;12.60;;;;;;;17.93;55.03;155837.33;1804896;78;21395;-58
2021/01/24 00:11:29;;;;;;;30.50;13.20;;;;;;;18.00;55.01;155855.78;1816991;78;21163;-59
2021/01/24 00:14:01;;;;;;;29.80;12.65;;;;;;;18.04;54.60;155865.00;1818918;78;21275;-58
2021/01/24 00:16:34;;;;;;;30.25;12.47;;;;;;;18.03;54.63;155862.38;1803443;78;21228;-59
2021/01/24 00:19:06;;;;;;;28.98;12.43;;;;;;;18.03;54.70;155863.72;1794093;78;21280;-59
2021/01/24 00:21:39;;;;;;;27.67;12.80;;;;;;;18.08;54.84;155875.58;1805024;78;21371;-59
2021/01/24 00:24:12;;;;;;;30.92;11.63;;;;;;;18.20;54.78;155908.55;1812747;78;21336;-59
2021/01/24 00:26:44;;;;;;;26.87;12.63;;;;;;;18.27;54.38;155927.11;1803276;78;21380;-59
2021/01/24 00:29:16;;;;;;;25.72;13.08;;;;;;;18.33;54.53;155942.92;1789517;78;21332;-59
2021/01/24 00:31:48;;;;;;;24.65;11.90;;;;;;;18.29;54.13;155932.34;1819058;78;21253;-59
2021/01/24 00:34:20;;;;;;;30.45;12.70;;;;;;;18.38;54.28;155957.44;1816200;78;22440;-59
2021/01/24 00:36:53;;;;;;;26.10;11.65;;;;;;;18.35;54.52;155948.22;1803730;78;21240;-59
2021/01/24 00:39:25;;;;;;;22.75;10.48;;;;;;;18.33;55.19;155944.28;1803345;78;21244;-59
2021/01/24 00:41:58;;;;;;;28.20;12.03;;;;;;;18.36;55.23;155952.16;1827865;78;21387;-59
2021/01/24 00:44:30;;;;;;;24.90;10.95;;;;;;;18.39;55.14;155958.78;1825200;78;21238;-59
2021/01/24 00:47:02;;;;;;;22.00;10.03;;;;;;;18.33;54.92;155942.92;1817914;78;21859;-58
2021/01/24 00:49:35;;;;;;;24.12;10.88;;;;;;;18.33;55.02;155942.92;1800525;78;21411;-59
2021/01/24 00:52:07;;;;;;;21.12;9.93;;;;;;;18.30;54.93;155936.34;1793653;78;21251;-59
2021/01/24 00:54:39;;;;;;;17.90;9.38;;;;;;;18.32;54.87;155941.63;1795778;78;21899;-60
2021/01/24 00:57:12;;;;;;;19.42;8.65;;;;;;;18.32;54.85;155941.63;1796424;78;21232;-60
2021/01/24 00:59:45;;;;;;;24.67;10.75;;;;;;;18.39;54.74;155958.78;1789521;78;21808;-60
2021/01/24 01:02:17;;;;;;;24.45;10.30;;;;;;;18.74;54.63;156052.50;1804578;78;21232;-59
2021/01/24 01:04:49;;;;;;;26.80;11.38;;;;;;;18.52;54.97;155994.41;1797685;78;21193;-59
2021/01/24 01:07:22;;;;;;;22.87;9.08;;;;;;;18.51;55.52;155991.77;1801540;79;21233;-59
2021/01/24 01:09:54;;;;;;;23.38;10.43;;;;;;;18.59;55.19;156011.58;1769427;79;21248;-60
2021/01/24 01:12:27;;;;;;;19.37;9.75;;;;;;;18.62;54.73;156019.52;1797497;78;21263;-60
2021/01/24 01:14:59;;;;;;;22.82;9.83;;;;;;;18.65;54.74;156028.75;1802784;78;21302;-59
2021/01/24 01:17:32;;;;;;;24.50;10.28;;;;;;;18.67;54.92;156034.03;1801807;79;21278;-59
2021/01/24 01:20:05;;;;;;;27.20;11.03;;;;;;;18.75;54.87;156055.14;1812559;78;21309;-60
2021/01/24 01:22:38;;;;;;;22.73;10.25;;;;;;;18.72;55.17;156045.91;1795255;78;21407;-59
2021/01/24 01:25:11;;;;;;;20.90;8.68;;;;;;;18.71;55.16;156044.56;1794695;79;21248;-60
2021/01/24 01:27:43;;;;;;;18.40;8.78;;;;;;;18.75;54.89;156055.14;1799322;79;21210;-59
2021/01/24 01:30:17;;;;;;;16.50;8.10;;;;;;;18.72;54.91;156045.91;1795399;79;21210;-59
2021/01/24 01:32:49;;;;;;;14.40;7.33;;;;;;;18.81;55.20;156069.66;1802341;79;21189;-59
2021/01/24 01:35:22;;;;;;;15.98;8.10;;;;;;;19.05;54.25;156134.34;1810691;78;21320;-59
2021/01/24 01:37:54;;;;;;;15.30;7.58;;;;;;;19.17;53.99;156167.45;1791496;79;21195;-59
2021/01/24 01:40:27;;;;;;;14.70;7.65;;;;;;;18.82;54.44;156072.31;1810840;78;21411;-60
2021/01/24 01:42:59;;;;;;;14.85;7.62;;;;;;;18.72;54.97;156047.20;1795495;78;21403;-60
2021/01/24 01:45:32;;;;;;;14.35;7.83;;;;;;;18.68;55.17;156036.69;1792180;78;21198;-60
2021/01/24 01:48:04;;;;;;;14.60;7.15;;;;;;;18.79;55.20;156064.38;1807660;78;21319;-59
2021/01/24 01:50:37;;;;;;;14.35;7.28;;;;;;;18.81;54.90;156069.66;1820429;77;21335;-59
2021/01/24 01:53:10;;;;;;;16.80;8.30;;;;;;;18.81;55.42;156069.66;1804185;78;21363;-59
2021/01/24 01:55:42;;;;;;;16.93;8.30;;;;;;;18.98;55.16;156114.58;1809494;78;21431;-59
2021/01/24 01:58:14;;;;;;;14.70;7.37;;;;;;;19.15;55.31;156162.16;1801211;79;21245;-58
2021/01/24 02:00:49;;;;;;;16.05;8.88;;;;;;;19.19;54.85;156172.75;1792432;79;21166;-59
2021/01/24 02:03:47;;;;;;;13.75;7.17;;;;;;;19.20;54.75;156175.39;1793077;79;21233;-59
2021/01/24 02:06:24;;;;;;;15.88;7.37;;;;;;;19.18;55.01;156168.75;1809626;78;21166;-59
2021/01/24 02:09:16;;;;;;;16.42;7.58;;;;;;;19.25;54.94;156187.27;1814029;78;21328;-59
2021/01/24 02:12:11;;;;;;;17.27;7.35;;;;;;;19.16;55.04;156164.80;1799500;78;21189;-59
2021/01/24 02:14:59;;;;;;;13.68;7.53;;;;;;;19.15;55.31;156160.86;1801126;78;21387;-59
2021/01/24 02:17:39;;;;;;;16.48;7.53;;;;;;;19.15;55.35;156162.16;1812141;78;21875;-59
2021/01/24 02:20:22;;;;;;;11.70;6.70;;;;;;;19.23;55.57;156183.28;1807410;78;21177;-59
2021/01/24 02:22:55;;;;;;;13.95;7.35;;;;;;;19.31;55.35;156203.09;1806964;78;21591;-59
2021/01/24 02:25:47;;;;;;;13.90;7.35;;;;;;;19.21;55.50;156177.98;1789740;78;21191;-59
2021/01/24 02:28:45;;;;;;;14.63;7.05;;;;;;;19.25;55.70;156187.27;1805663;78;21441;-59
2021/01/24 02:31:18;;;;;;;13.80;6.55;;;;;;;19.26;55.64;156191.22;1806492;78;21195;-59
2021/01/24 02:33:50;;;;;;;10.78;6.62;;;;;;;19.25;55.60;156187.27;1807094;78;21174;-59
2021/01/24 02:36:23;;;;;;;13.25;7.05;;;;;;;19.25;55.50;156188.56;1812879;78;21217;-59
2021/01/24 02:38:55;;;;;;;13.83;7.05;;;;;;;19.37;55.10;156218.97;1809840;78;21186;-59
2021/01/24 02:41:28;;;;;;;14.23;7.03;;;;;;;19.35;55.35;156213.69;1799163;78;21359;-59
2021/01/24 02:44:00;;;;;;;11.68;6.72;;;;;;;19.43;55.50;156236.16;1755858;80;21230;-59
2021/01/24 02:46:32;;;;;;;13.50;7.30;;;;;;;19.13;55.91;156156.86;1728714;82;21445;-59
2021/01/24 02:49:05;;;;;;;13.30;7.40;;;;;;;19.47;55.09;156245.39;1788037;79;21212;-59
2021/01/24 02:51:37;;;;;;;13.93;7.90;;;;;;;19.30;55.08;156200.44;1804506;78;21217;-60
2021/01/24 02:54:09;;;;;;;13.95;7.83;;;;;;;19.25;55.17;156187.27;1803391;78;21340;-59
2021/01/24 02:56:42;;;;;;;13.43;7.10;;;;;;;19.54;54.63;156263.88;1797781;78;21343;-59
2021/01/24 02:59:14;;;;;;;12.28;7.28;;;;;;;19.61;54.29;156283.69;1793402;79;21260;-59
2021/01/24 03:01:47;;;;;;;12.05;7.20;;;;;;;19.26;54.84;156191.22;1789421;78;21309;-59
2021/01/24 03:04:19;;;;;;;13.30;7.37;;;;;;;19.26;55.15;156191.22;1799384;78;21194;-59
2021/01/24 07:26:11;;;;;;;60.40;22.13;;;;;;;8.55;100.00;153357.59;1842338;76;24784;-60
2021/01/24 07:28:44;;;;;;;44.27;20.02;;;;;;;12.81;100.00;154481.13;1811366;79;21243;-71
2021/01/24 07:31:17;;;;;;;37.80;18.30;;;;;;;12.85;100.00;154491.59;1817087;79;21371;-60
2021/01/24 07:33:50;;;;;;;37.60;18.73;;;;;;;13.20;100.00;154582.22;1816827;77;21252;-57
2021/01/24 07:36:22;;;;;;;35.73;18.05;;;;;;;13.32;100.00;133048.91;1796313;79;21201;-71
2021/01/24 07:38:55;;;;;;;40.58;17.27;;;;;;;13.58;100.00;129977.40;1816210;79;21210;-66
2021/01/24 07:41:27;;;;;;;31.93;16.93;;;;;;;13.91;100.00;118596.70;1816624;79;21753;-64
2021/01/24 07:44:00;;;;;;;44.45;17.23;;;;;;;13.82;100.00;99123.44;1817513;79;21698;-74
2021/01/24 07:46:33;;;;;;;31.15;14.90;;;;;;;13.86;100.00;75666.69;1817104;79;21384;-58
2021/01/24 07:49:05;;;;;;;36.15;15.55;;;;;;;13.83;100.00;66238.81;1815988;79;21686;-62
2021/01/24 07:51:38;;;;;;;31.57;14.65;;;;;;;13.90;100.00;62346.87;1817484;77;21273;-58
2021/01/24 07:54:11;;;;;;;30.88;14.15;;;;;;;14.04;100.00;61779.78;1816478;79;21170;-68
2021/01/24 07:56:44;;;;;;;25.45;14.47;;;;;;;14.12;100.00;62188.96;1792748;79;21170;-69
2021/01/24 07:59:18;;;;;;;32.58;13.80;;;;;;;14.13;100.00;63964.48;1794763;79;21230;-64
2021/01/24 08:01:50;;;;;;;25.15;14.10;;;;;;;14.15;100.00;65992.31;1815438;77;21725;-59
2021/01/24 08:04:26;;;;;;;25.40;14.23;;;;;;;14.33;100.00;68479.82;1792105;79;21327;-58
2021/01/24 08:06:58;;;;;;;28.87;12.10;;;;;;;14.34;100.00;70340.43;1814920;79;21197;-58
2021/01/24 08:09:30;;;;;;;28.98;13.62;;;;;;;14.55;100.00;72460.42;1814468;79;21191;-58
2021/01/24 08:12:12;;;;;;;37.38;13.20;;;;;;;14.44;100.00;74039.28;1771733;79;21301;-58
2021/01/24 08:14:45;;;;;;;25.72;11.75;;;;;;;14.45;100.00;75264.81;1815639;79;21934;-58
2021/01/24 08:17:17;;;;;;;28.92;12.13;;;;;;;14.39;100.00;76975.66;1817001;79;21704;-60
2021/01/24 08:19:51;;;;;;;19.20;11.50;;;;;;;14.37;100.00;77702.52;1815947;79;21198;-58
2021/01/24 08:22:27;;;;;;;20.52;10.03;;;;;;;14.41;100.00;78466.94;1815664;79;21166;-59
2021/01/24 08:25:00;;;;;;;19.10;11.70;;;;;;;14.30;100.00;78819.46;1808492;79;21198;-59
2021/01/24 08:27:32;;;;;;;26.42;11.75;;;;;;;14.36;100.00;80170.05;1800331;79;22197;-59
2021/01/24 08:30:07;;;;;;;23.25;10.43;;;;;;;14.40;100.00;81275.41;1781651;78;21254;-59
2021/01/24 08:32:43;;;;;;;22.25;10.82;;;;;;;14.53;100.00;81417.13;1784237;79;21272;-57
2021/01/24 08:35:15;;;;;;;21.62;10.32;;;;;;;14.41;100.00;81649.20;1801199;78;21234;-58
2021/01/24 08:37:48;;;;;;;25.12;11.08;;;;;;;14.67;100.00;83166.54;1801479;79;21231;-57
2021/01/24 08:40:20;;;;;;;24.60;10.35;;;;;;;14.85;99.59;82650.27;1801422;79;21222;-58
2021/01/24 08:42:53;;;;;;;23.60;10.45;;;;;;;14.84;99.01;82758.31;1800796;79;21202;-58
2021/01/24 08:45:27;;;;;;;21.95;10.23;;;;;;;14.80;98.41;83055.00;1799413;79;21364;-59
2021/01/24 08:48:04;;;;;;;26.27;11.90;;;;;;;14.87;98.06;83006.06;1801681;79;21179;-59
2021/01/24 08:50:39;;;;;;;22.95;9.80;;;;;;;14.92;97.68;83585.19;1801895;78;21349;-58
2021/01/24 08:53:11;;;;;;;21.82;9.78;;;;;;;14.96;97.07;84544.28;1801536;78;21384;-60
2021/01/24 08:55:47;;;;;;;21.42;10.03;;;;;;;14.98;96.58;84580.03;1802325;79;21230;-57
2021/01/24 08:58:27;;;;;;;22.87;11.00;;;;;;;15.03;95.94;84928.92;1799476;78;21208;-58
2021/01/24 09:01:13;;;;;;;23.15;10.58;;;;;;;15.13;95.22;84527.70;1802759;79;21428;-58
2021/01/24 09:03:46;;;;;;;19.80;9.90;;;;;;;15.15;94.92;84760.02;1799460;79;21801;-59
2021/01/24 09:06:19;;;;;;;18.42;9.00;;;;;;;15.23;93.70;84624.29;1799975;79;21214;-60
2021/01/24 09:08:59;;;;;;;18.75;9.03;;;;;;;15.39;93.24;84871.44;1762110;81;21820;-59
2021/01/24 09:11:28;;;;;;;19.02;8.70;;;;;;;15.34;92.48;83915.55;1798708;79;21717;-59
2021/01/24 09:14:00;;;;;;;17.25;8.28;;;;;;;15.32;91.84;84539.39;1799810;79;21899;-58
2021/01/24 09:16:33;;;;;;;19.30;8.23;;;;;;;15.43;91.20;84594.97;1801432;79;21689;-58
2021/01/24 09:19:05;;;;;;;18.65;9.25;;;;;;;15.49;90.54;86059.92;1802959;79;21435;-60
2021/01/24 09:21:38;;;;;;;17.40;8.65;;;;;;;15.43;90.30;86996.33;1802250;79;21365;-58
2021/01/24 09:24:11;;;;;;;17.67;8.73;;;;;;;15.47;90.09;89301.14;1803770;79;21325;-58
2021/01/24 09:26:45;;;;;;;18.95;8.90;;;;;;;15.46;89.96;89999.46;1804332;79;21364;-60
2021/01/24 09:29:17;;;;;;;24.10;9.15;;;;;;;15.59;89.58;83257.34;1769319;80;21225;-75
2021/01/24 09:31:50;;;;;;;18.17;7.75;;;;;;;15.61;89.18;76091.42;1750816;81;21237;-58
2021/01/24 09:34:23;;;;;;;20.37;8.45;;;;;;;15.71;88.94;71067.85;1747512;82;21397;-58
2021/01/24 09:36:55;;;;;;;17.57;7.60;;;;;;;15.72;88.20;62832.41;1741064;81;21238;-58
2021/01/24 09:39:28;;;;;;;14.05;7.58;;;;;;;15.80;87.92;55483.79;1741309;82;21367;-58
2021/01/24 09:42:00;;;;;;;16.17;7.42;;;;;;;15.97;87.82;51180.60;1744212;81;21316;-58
2021/01/24 09:44:32;;;;;;;14.23;6.97;;;;;;;16.03;87.05;44181.98;1774733;80;21218;-58
2021/01/24 09:47:04;;;;;;;18.80;6.62;;;;;;;15.99;86.39;39993.80;1769250;80;21245;-56
2021/01/24 09:49:37;;;;;;;14.85;7.05;;;;;;;16.04;86.31;38935.18;1767244;80;21760;-66
2021/01/24 09:52:10;;;;;;;13.98;6.95;;;;;;;15.99;85.98;37568.08;1744206;80;21407;-58
2021/01/24 09:54:42;;;;;;;12.40;6.62;;;;;;;15.95;85.47;32964.69;1755463;81;21183;-58
2021/01/24 09:57:14;;;;;;;13.30;6.72;;;;;;;15.74;86.07;33349.41;1775688;80;21201;-58
2021/01/24 09:59:47;;;;;;;11.75;6.22;;;;;;;15.74;85.99;30877.85;1753337;81;21191;-64
2021/01/24 10:02:19;;;;;;;12.93;6.75;;;;;;;15.65;86.03;30028.45;1728383;82;21280;-63
2021/01/24 10:04:52;;;;;;;17.27;7.42;;;;;;;15.65;86.06;28384.67;1752731;81;21396;-72
2021/01/24 10:07:24;;;;;;;15.83;7.67;;;;;;;15.70;85.90;27340.89;1752645;81;21191;-58
2021/01/24 10:09:58;;;;;;;14.78;6.80;;;;;;;15.87;85.59;24578.52;1752640;81;21211;-66
2021/01/24 10:12:30;;;;;;;16.42;6.90;;;;;;;16.80;82.87;5608.79;1767035;81;21364;-58
2021/01/24 10:15:03;;;;;;;14.43;6.65;;;;;;;17.04;81.35;-1912.98;1777888;80;21174;-65
2021/01/24 10:17:37;;;;;;;14.05;6.83;;;;;;;17.12;80.63;-3284.77;1776179;80;21273;-65
2021/01/24 10:20:10;;;;;;;10.48;6.50;;;;;;;17.14;79.99;-4649.81;1745860;80;21359;-66
2021/01/24 10:22:42;;;;;;;18.90;7.05;;;;;;;16.95;79.70;-6018.57;1750015;81;21293;-66
2021/01/24 10:25:14;;;;;;;13.90;6.75;;;;;;;16.11;82.22;-2658.64;1744476;82;21787;-65
2021/01/24 10:27:47;;;;;;;15.72;6.35;;;;;;;16.11;83.00;3017.18;1777228;80;21234;-76
2021/01/24 10:30:21;;;;;;;13.00;5.95;;;;;;;16.32;82.64;223.86;1752174;81;21382;-57
2021/01/24 10:32:54;;;;;;;14.07;5.97;;;;;;;16.53;82.10;-4959.60;1750284;81;21263;-70
2021/01/24 10:35:26;;;;;;;11.12;5.60;;;;;;;16.52;81.88;-5466.05;1760504;80;21245;-58
2021/01/24 10:37:59;;;;;;;14.58;6.37;;;;;;;16.63;81.19;-8239.68;1740556;82;21392;-58
2021/01/24 10:40:31;;;;;;;17.30;6.28;;;;;;;16.72;80.63;-7727.59;1755979;81;21436;-61
2021/01/24 10:43:07;;;;;;;17.42;6.37;;;;;;;17.35;80.45;-6363.23;1759249;81;21376;-59
2021/01/24 10:45:39;;;;;;;10.68;6.03;;;;;;;16.91;79.68;-7387.07;1760563;80;21960;-59
2021/01/24 10:48:12;;;;;;;12.18;5.80;;;;;;;16.84;79.52;-8070.59;1762031;80;21239;-59
2021/01/24 10:50:45;;;;;;;11.45;5.90;;;;;;;16.91;79.45;-7729.11;1758963;81;21198;-59
2021/01/24 10:53:17;;;;;;;14.35;7.08;;;;;;;16.80;79.10;-8070.20;1714499;83;21335;-60
2021/01/24 10:55:50;;;;;;;11.03;5.42;;;;;;;16.70;79.46;-8923.99;1728467;83;21242;-73
2021/01/24 10:58:23;;;;;;;8.60;5.37;;;;;;;16.69;79.51;-8582.05;1714829;83;21370;-59
2021/01/24 11:00:56;;;;;;;13.80;6.35;;;;;;;16.70;79.33;-8411.21;1728214;83;21809;-59
2021/01/24 11:03:28;;;;;;;17.55;5.72;;;;;;;16.65;79.34;-7727.01;1715096;83;21399;-59
2021/01/24 11:06:01;;;;;;;11.90;6.08;;;;;;;16.60;79.17;-7555.61;1728348;83;21365;-59
2021/01/24 11:08:33;;;;;;;11.03;5.22;;;;;;;16.48;79.48;-7896.48;1714737;83;21387;-59
2021/01/24 11:11:05;;;;;;;15.10;5.75;;;;;;;16.38;79.77;-8237.41;1728335;83;21338;-60
2021/01/24 11:13:38;;;;;;;12.58;4.87;;;;;;;16.31;79.84;-8749.21;1714896;83;21328;-60
2021/01/24 11:16:10;;;;;;;9.83;4.60;;;;;;;16.35;79.90;-9262.04;1728466;83;21809;-59
2021/01/24 11:18:43;;;;;;;10.90;4.30;;;;;;;16.38;79.75;-10116.28;1715041;83;21366;-59
2021/01/24 11:21:16;;;;;;;12.40;4.97;;;;;;;16.51;79.65;-9434.65;1728295;83;21385;-59
2021/01/24 11:23:48;;;;;;;12.37;4.92;;;;;;;16.61;79.49;-8068.57;1715324;83;21393;-59
2021/01/24 11:26:20;;;;;;;11.08;4.72;;;;;;;16.64;79.42;-7555.93;1728246;83;21231;-59
2021/01/24 11:28:53;;;;;;;7.42;4.45;;;;;;;16.52;79.49;-8067.73;1714860;83;21382;-59
2021/01/24 11:31:25;;;;;;;9.15;4.47;;;;;;;16.48;79.51;-7896.52;1728249;83;21321;-59
2021/01/24 11:33:58;;;;;;;10.88;5.00;;;;;;;16.30;80.16;-8918.96;1714912;83;21375;-59
2021/01/24 11:36:31;;;;;;;10.45;5.33;;;;;;;16.65;79.72;-8752.58;1728221;83;21338;-59
2021/01/24 11:39:03;;;;;;;11.55;5.60;;;;;;;16.69;79.19;-8582.10;1714866;83;21327;-59
2021/01/24 11:41:36;;;;;;;11.43;4.95;;;;;;;16.99;79.19;-7045.51;1727672;83;21662;-59
2021/01/24 11:44:08;;;;;;;11.63;5.37;;;;;;;16.79;79.02;-9266.77;1714187;83;21323;-59
2021/01/24 11:46:40;;;;;;;16.10;5.28;;;;;;;16.80;78.82;-8412.15;1728383;83;21249;-59
2021/01/24 11:49:13;;;;;;;10.25;5.12;;;;;;;16.86;78.97;-8754.71;1714946;83;21347;-59
2021/01/24 11:51:45;;;;;;;11.60;5.87;;;;;;;16.91;78.79;-8413.18;1728202;83;21821;-60
2021/01/24 11:54:18;;;;;;;11.15;5.17;;;;;;;16.94;78.64;-7729.36;1715055;83;21265;-59
2021/01/24 11:56:50;;;;;;;14.98;5.80;;;;;;;16.90;78.46;-8071.12;1728316;83;21258;-59
2021/01/24 11:59:23;;;;;;;13.43;6.22;;;;;;;16.87;78.44;-7386.72;1714978;83;21335;-59
2021/01/24 12:01:55;;;;;;;11.63;5.25;;;;;;;16.74;78.63;-7727.71;1728642;83;21201;-59
2021/01/24 12:04:28;;;;;;;10.03;5.60;;;;;;;16.74;78.57;-7727.71;1714672;83;21327;-59
2021/01/24 12:07:01;;;;;;;10.55;5.20;;;;;;;16.84;78.51;-8412.52;1728166;83;21381;-59
2021/01/24 12:09:33;;;;;;;16.70;5.22;;;;;;;16.80;78.40;-6873.08;1714828;83;21331;-60
2021/01/24 12:12:06;;;;;;;16.35;5.75;;;;;;;16.80;78.33;-7557.24;1728422;83;21366;-59
2021/01/24 12:14:38;;;;;;;10.23;4.90;;;;;;;16.78;78.35;-7044.02;1714861;83;21198;-59
2021/01/24 12:17:11;;;;;;;11.18;5.20;;;;;;;16.82;78.37;-7899.42;1728624;83;21760;-60
2021/01/24 12:19:45;;;;;;;9.35;4.62;;;;;;;16.75;78.58;-7727.80;1715288;83;21328;-59
2021/01/24 12:22:18;;;;;;;9.65;5.20;;;;;;;16.81;78.50;-7386.30;1728256;83;21231;-59
2021/01/24 12:24:50;;;;;;;10.38;4.58;;;;;;;16.86;78.41;-7044.55;1715067;83;21324;-59
2021/01/24 12:27:22;;;;;;;9.98;4.47;;;;;;;16.83;78.39;-6873.29;1728318;83;21246;-59
2021/01/24 12:29:55;;;;;;;11.73;4.67;;;;;;;16.79;78.43;-7386.14;1714778;83;21340;-59
2021/01/24 12:32:27;;;;;;;15.35;5.72;;;;;;;16.81;78.42;-7728.33;1773753;81;21155;-59
2021/01/24 12:35:00;;;;;;;8.43;4.65;;;;;;;16.89;78.36;-7386.91;1773718;81;21241;-59
2021/01/24 12:37:32;;;;;;;12.40;4.80;;;;;;;16.80;78.42;-7044.13;1773575;81;21183;-60
2021/01/24 12:40:06;;;;;;;10.25;6.00;;;;;;;16.75;78.51;-6701.70;1788215;78;21203;-75
2021/01/24 12:42:38;;;;;;;11.28;5.60;;;;;;;16.66;78.91;-5791.45;1803299;79;21243;-58
2021/01/24 12:45:12;;;;;;;10.95;6.60;;;;;;;17.02;78.03;-5334.24;1803060;79;21813;-73
2021/01/24 12:47:44;;;;;;;21.60;7.90;;;;;;;17.04;77.73;-5676.73;1803366;79;21223;-59
2021/01/24 12:50:18;;;;;;;9.15;5.92;;;;;;;17.01;77.50;-5334.22;1803368;79;21388;-60
2021/01/24 12:52:51;;;;;;;13.08;5.87;;;;;;;17.03;77.48;-5847.82;1801193;79;21361;-60
2021/01/24 12:55:24;;;;;;;9.88;5.40;;;;;;;17.04;77.37;-5334.33;1801491;79;21159;-60
2021/01/24 12:57:57;;;;;;;13.20;7.25;;;;;;;16.98;77.53;-5162.91;1804361;79;21381;-60
2021/01/24 13:00:30;;;;;;;7.80;4.85;;;;;;;16.97;77.39;-4456.64;1802181;79;21353;-60
2021/01/24 13:03:03;;;;;;;13.72;6.58;;;;;;;17.02;77.27;-4991.86;1803008;78;21194;-61
2021/01/24 13:05:36;;;;;;;13.40;5.95;;;;;;;16.94;77.33;-4991.54;1803957;79;21360;-61
2021/01/24 13:08:09;;;;;;;9.48;4.85;;;;;;;16.96;77.36;-4536.88;1801967;79;21167;-59
2021/01/24 13:10:42;;;;;;;14.13;8.15;;;;;;;16.96;77.30;-4463.29;1802727;79;21262;-60
2021/01/24 13:13:15;;;;;;;16.40;10.40;;;;;;;16.57;78.45;282.58;1802763;78;21345;-60
2021/01/24 13:15:47;;;;;;;9.75;5.60;;;;;;;16.88;77.96;-891.71;1803265;78;21163;-61
2021/01/24 13:18:20;;;;;;;9.88;5.42;;;;;;;16.88;77.88;-1429.93;1803514;79;21301;-58
2021/01/24 13:20:52;;;;;;;12.82;6.20;;;;;;;16.90;77.78;-954.60;1803186;79;21376;-59
2021/01/24 13:23:25;;;;;;;12.58;7.00;;;;;;;16.85;78.87;3916.90;1803726;79;21714;-60
2021/01/24 13:25:58;;;;;;;10.08;6.22;;;;;;;16.88;79.66;12784.43;1803256;78;21156;-65
2021/01/24 13:28:30;;;;;;;12.88;5.67;;;;;;;16.79;78.94;8645.62;1803717;78;21809;-62
2021/01/24 13:31:02;;;;;;;12.13;5.97;;;;;;;16.81;80.12;16785.88;1803154;79;21230;-60
2021/01/24 13:33:35;;;;;;;10.00;5.80;;;;;;;16.77;79.98;16771.31;1777682;80;21312;-66
2021/01/24 13:36:10;;;;;;;9.70;5.83;;;;;;;16.61;84.32;38718.42;1776530;79;21399;-60
2021/01/24 13:38:43;;;;;;;15.03;7.33;;;;;;;16.34;84.77;51006.82;1772660;80;21355;-57
2021/01/24 13:41:18;;;;;;;14.98;6.40;;;;;;;16.48;88.57;78093.08;1777765;79;21355;-68
2021/01/24 13:43:50;;;;;;;14.95;6.97;;;;;;;16.56;86.79;70249.58;1771300;79;21461;-65
2021/01/24 13:46:23;;;;;;;12.73;6.53;;;;;;;16.42;87.07;74761.55;1771915;79;21217;-60
2021/01/24 13:48:56;;;;;;;12.35;6.50;;;;;;;16.30;90.39;86933.80;1774902;80;21348;-64
2021/01/24 13:51:29;;;;;;;16.32;7.62;;;;;;;16.31;89.08;83778.66;1773903;80;21375;-61
2021/01/24 13:54:01;;;;;;;13.18;6.58;;;;;;;16.23;90.46;87997.16;1776158;80;21617;-61
2021/01/24 13:56:34;;;;;;;11.63;6.40;;;;;;;20.90;100.00;114559.56;1776063;80;21166;-60
2021/01/24 13:59:06;;;;;;;17.95;8.75;;;;;;;17.76;90.05;95429.52;1776933;79;21173;-60
2021/01/24 14:01:40;;;;;;;14.78;7.50;;;;;;;17.02;94.15;109156.80;1769498;79;21137;-62
2021/01/24 14:04:13;;;;;;;13.32;7.20;;;;;;;16.69;100.00;121580.30;1761097;80;21363;-60
2021/01/24 14:06:45;;;;;;;12.45;6.95;;;;;;;16.74;100.00;149730.50;1773428;80;21307;-60
2021/01/24 14:09:17;;;;;;;13.40;7.20;;;;;;;16.37;100.00;149474.52;1779201;80;21217;-60
2021/01/24 14:11:51;;;;;;;17.75;10.10;;;;;;;16.39;100.00;152189.73;1779344;80;21185;-60
2021/01/24 14:14:24;;;;;;;30.70;14.20;;;;;;;16.60;100.00;150535.70;1779068;80;21344;-60
2021/01/24 14:16:56;;;;;;;36.90;15.88;;;;;;;16.55;100.00;149008.38;1779071;80;21181;-60
2021/01/24 14:19:28;;;;;;;19.35;9.90;;;;;;;16.99;100.00;129041.13;1779011;80;21245;-60
2021/01/24 14:22:01;;;;;;;28.52;14.15;;;;;;;16.92;100.00;123518.59;1779229;80;21311;-60
2021/01/24 14:24:33;;;;;;;24.82;10.88;;;;;;;16.83;100.00;120094.88;1779259;80;21202;-60
2021/01/24 14:27:06;;;;;;;27.10;13.53;;;;;;;16.72;99.56;115481.72;1779067;80;21363;-60
2021/01/24 14:29:38;;;;;;;31.55;14.30;;;;;;;16.63;99.29;113141.63;1778951;80;21787;-60
2021/01/24 14:32:11;;;;;;;18.35;10.15;;;;;;;16.69;100.00;117239.67;1778828;80;21374;-60
2021/01/24 14:34:43;;;;;;;16.27;9.43;;;;;;;16.58;99.85;117158.23;1779038;80;21414;-59
2021/01/24 14:37:16;;;;;;;29.07;14.05;;;;;;;16.58;99.55;116311.33;1779030;80;21308;-60
2021/01/24 14:39:48;;;;;;;24.40;11.12;;;;;;;16.51;98.72;113561.92;1779142;80;21173;-60
2021/01/24 14:42:20;;;;;;;21.48;12.28;;;;;;;16.62;99.02;114891.54;1779307;80;21657;-60
2021/01/24 14:44:53;;;;;;;17.52;9.13;;;;;;;16.55;98.17;111674.78;1779454;80;22332;-59
2021/01/24 14:47:27;;;;;;;21.97;10.05;;;;;;;16.55;99.25;114075.84;1779103;80;21210;-59
2021/01/24 14:49:59;;;;;;;18.62;10.20;;;;;;;16.50;98.45;113792.08;1779284;80;21314;-60
2021/01/24 14:52:31;;;;;;;19.82;9.83;;;;;;;16.60;98.93;113771.66;1778926;80;21359;-60
2021/01/24 14:55:05;;;;;;;23.73;11.78;;;;;;;16.65;98.78;113626.27;1779349;80;21159;-60
2021/01/24 14:57:38;;;;;;;30.55;12.88;;;;;;;16.48;98.42;112703.28;1779206;80;21213;-60
2021/01/24 15:00:12;;;;;;;17.67;9.63;;;;;;;16.46;98.35;112302.78;1778993;80;21882;-60
2021/01/24 15:02:45;;;;;;;16.27;8.70;;;;;;;16.39;97.59;110083.80;1779168;80;21205;-60
2021/01/24 15:05:17;;;;;;;16.25;9.05;;;;;;;16.47;97.80;109684.92;1779229;80;21308;-60
2021/01/24 15:07:50;;;;;;;18.37;9.93;;;;;;;16.40;97.18;106505.58;1779350;80;21177;-59
2021/01/24 15:10:24;;;;;;;17.60;10.85;;;;;;;16.15;100.00;127882.67;1779146;80;21363;-60
2021/01/24 15:12:56;;;;;;;25.35;14.15;;;;;;;16.41;100.00;131551.98;1779289;80;21212;-59
2021/01/24 15:15:29;;;;;;;15.78;9.60;;;;;;;16.33;100.00;136919.06;1778899;80;21178;-59
2021/01/24 15:18:01;;;;;;;19.00;11.55;;;;;;;16.64;100.00;129794.81;1779120;80;21319;-60
2021/01/24 15:20:34;;;;;;;18.50;11.05;;;;;;;16.74;99.17;117723.28;1779165;80;21339;-60
2021/01/24 15:23:07;;;;;;;20.62;10.53;;;;;;;16.79;98.42;112093.94;1778890;80;21311;-60
2021/01/24 15:25:40;;;;;;;13.95;9.13;;;;;;;16.79;98.09;110247.03;1779158;80;21236;-59
2021/01/24 15:28:12;;;;;;;14.65;8.80;;;;;;;16.64;99.79;118997.11;1779208;80;21303;-60
2021/01/24 15:30:44;;;;;;;19.02;11.60;;;;;;;16.73;97.40;106805.67;1779067;80;21311;-60
2021/01/24 15:33:17;;;;;;;24.82;16.85;;;;;;;16.76;96.93;105247.08;1779126;80;21233;-59
2021/01/24 15:35:50;;;;;;;15.88;10.03;;;;;;;16.78;95.75;100416.37;1803907;78;21318;-60
2021/01/24 15:38:22;;;;;;;24.30;15.68;;;;;;;16.82;94.51;93766.23;1805197;79;21254;-59
2021/01/24 15:40:54;;;;;;;17.15;11.60;;;;;;;16.82;94.89;95422.52;1805116;79;21302;-60
2021/01/24 15:43:27;;;;;;;28.57;14.10;;;;;;;17.01;94.73;93127.96;1794337;79;21714;-60
2021/01/24 15:46:00;;;;;;;19.67;13.35;;;;;;;17.00;94.33;92539.78;1805201;79;21833;-60
2021/01/24 15:48:32;;;;;;;22.20;12.23;;;;;;;17.06;94.67;94199.83;1805383;79;21152;-59
2021/01/24 15:51:05;;;;;;;22.07;13.05;;;;;;;16.99;93.54;92117.53;1805437;79;21317;-60
2021/01/24 15:53:39;;;;;;;22.95;14.75;;;;;;;16.81;94.13;92855.42;1805353;79;21206;-59
2021/01/24 15:56:12;;;;;;;24.55;14.05;;;;;;;16.89;97.91;100305.44;1805481;79;21168;-60
2021/01/24 15:58:44;;;;;;;18.77;13.08;;;;;;;16.72;100.00;125479.78;1805642;79;21303;-60
2021/01/24 16:01:17;;;;;;;22.67;14.20;;;;;;;16.83;95.83;102396.38;1805269;79;21584;-60
2021/01/24 16:03:49;;;;;;;16.55;10.53;;;;;;;16.83;94.65;96747.45;1805143;79;21706;-60
2021/01/24 16:06:21;;;;;;;16.77;10.38;;;;;;;16.90;94.36;94914.71;1805505;79;21221;-60